Time;durP1;ratioP1;P1;durP2;ratioP2;P2;SDS_P1;SDS_P2;PMS_P1;PMS_P2;Temp;Humidity;BMP_temperature;BMP_pressure;BME280_temperature;BME280_humidity;BME280_pressure;Samples;Min_cycle;Max_cycle;Signal;HPM_P1;HPM_P2
2021/10/01 00:00:57;;;;;;;3.03;0.50;;;;;;;19.88;74.39;100050.78;4973689;28;20042;-94
2021/10/01 00:03:22;;;;;;;2.55;0.50;;;;;;;19.87;74.42;100046.47;4973382;28;20050;-94
2021/10/01 00:05:48;;;;;;;1.65;0.38;;;;;;;19.64;75.04;100044.50;4973069;28;20033;-94
2021/10/01 00:08:13;;;;;;;2.85;0.50;;;;;;;19.82;74.49;100041.66;4974777;28;20050;-94
2021/10/01 00:10:39;;;;;;;1.77;0.40;;;;;;;19.83;73.90;100040.66;4973291;28;20362;-94
2021/10/01 00:13:04;;;;;;;3.85;0.50;;;;;;;19.86;74.31;100042.13;4973092;28;20027;-94
2021/10/01 00:15:31;;;;;;;3.15;0.75;;;;;;;19.79;74.51;100036.69;4974589;28;20022;-94
2021/10/01 00:17:57;;;;;;;4.25;0.95;;;;;;;19.51;75.02;100030.91;4973082;28;20035;-95
2021/10/01 00:20:22;;;;;;;5.10;0.70;;;;;;;19.68;74.34;100029.84;4973369;28;20029;-93
2021/10/01 00:22:47;;;;;;;6.30;0.82;;;;;;;19.77;73.58;100039.50;4974545;28;20041;-94
2021/10/01 00:25:13;;;;;;;2.85;0.55;;;;;;;19.71;73.60;100028.69;4974558;28;20030;-94
2021/10/01 00:27:38;;;;;;;3.03;0.40;;;;;;;19.53;73.93;100020.91;4973182;28;20031;-94
2021/10/01 00:30:05;;;;;;;2.97;0.52;;;;;;;19.79;73.33;100021.53;4974416;28;20026;-94
2021/10/01 00:32:31;;;;;;;5.63;0.50;;;;;;;19.79;73.36;100010.88;4972987;28;20061;-94
2021/10/01 00:34:56;;;;;;;3.13;0.80;;;;;;;19.20;74.76;100005.88;4972876;28;20030;-96
2021/10/01 00:37:22;;;;;;;1.98;0.47;;;;;;;19.68;72.88;99989.06;4973995;28;20090;-94
2021/10/01 00:39:47;;;;;;;5.13;0.50;;;;;;;19.51;73.14;99994.47;4974251;28;20027;-95
2021/10/01 00:42:13;;;;;;;6.68;0.50;;;;;;;19.53;72.83;99986.28;4972786;28;20030;-93
2021/10/01 00:44:38;;;;;;;5.43;0.85;;;;;;;19.61;72.50;99991.63;4972712;28;20027;-94
2021/10/01 00:47:03;;;;;;;3.60;0.55;;;;;;;19.52;72.94;99987.31;4974033;28;20445;-94
2021/10/01 00:49:29;;;;;;;5.85;1.00;;;;;;;19.32;73.54;99982.38;4972728;28;20023;-94
2021/10/01 00:51:54;;;;;;;2.70;0.65;;;;;;;19.67;72.40;99979.41;4974024;28;20034;-95
2021/10/01 00:54:20;;;;;;;5.72;1.05;;;;;;;19.21;73.68;99982.75;4973878;28;20030;-94
2021/10/01 00:56:46;;;;;;;5.78;0.88;;;;;;;19.38;73.27;99983.53;4973748;28;20485;-93
2021/10/01 00:59:11;;;;;;;4.97;0.70;;;;;;;19.64;72.58;99985.94;4972553;28;20045;-94
2021/10/01 01:01:37;;;;;;;7.20;0.80;;;;;;;19.40;73.24;99984.19;4973600;28;20101;-95
2021/10/01 01:04:07;;;;;;;7.72;1.60;;;;;;;19.64;72.31;99983.25;4972903;28;20046;-93
2021/10/01 01:06:55;;;;;;;5.03;1.00;;;;;;;19.78;71.78;99984.38;4973612;28;20023;-94
2021/10/01 01:09:37;;;;;;;3.25;0.68;;;;;;;19.52;72.06;99972.16;4972398;28;20027;-94
2021/10/01 01:12:08;;;;;;;5.30;0.77;;;;;;;19.77;71.68;99967.59;4972423;28;20037;-95
2021/10/01 01:14:39;;;;;;;7.70;1.08;;;;;;;19.74;71.49;99957.28;4972301;28;20031;-94
2021/10/01 01:17:08;;;;;;;6.93;1.33;;;;;;;19.46;71.49;99946.22;4972385;28;20035;-94
2021/10/01 01:20:02;;;;;;;7.60;1.00;;;;;;;19.51;71.97;99954.53;4972363;28;20030;-94
2021/10/01 01:22:35;;;;;;;8.80;1.33;;;;;;;19.48;70.88;99946.06;4972140;28;20133;-94
2021/10/01 01:25:22;;;;;;;11.38;1.40;;;;;;;19.67;70.89;99940.31;4971611;28;20489;-93
2021/10/01 01:27:57;;;;;;;4.85;0.77;;;;;;;19.62;70.89;99937.34;4973252;28;20031;-93
2021/10/01 01:30:26;;;;;;;6.95;1.08;;;;;;;19.53;70.87;99919.72;4972067;28;20048;-94
2021/10/01 01:32:58;;;;;;;5.10;0.93;;;;;;;19.47;71.39;99918.63;4972170;28;20029;-94
2021/10/01 01:35:32;;;;;;;4.28;1.38;;;;;;;19.42;71.28;99912.97;4973110;28;20466;-93
2021/10/01 01:38:03;;;;;;;5.57;0.93;;;;;;;19.33;71.84;99914.00;4973239;28;20030;-93
2021/10/01 01:40:31;;;;;;;5.10;1.27;;;;;;;19.55;71.30;99907.06;4973193;28;20026;-94
2021/10/01 01:42:59;;;;;;;7.07;2.63;;;;;;;19.57;70.62;99899.75;4973128;28;20034;-94
2021/10/01 01:45:24;;;;;;;7.25;0.60;;;;;;;19.42;70.71;99897.81;4971977;28;20038;-94
2021/10/01 01:47:51;;;;;;;8.73;1.60;;;;;;;19.21;71.25;99884.28;4971955;28;20027;-94
2021/10/01 01:50:18;;;;;;;7.25;0.95;;;;;;;19.32;71.58;99886.56;4973292;28;20034;-93
2021/10/01 01:52:46;;;;;;;6.95;1.05;;;;;;;19.43;71.10;99874.69;4973295;28;20027;-94
2021/10/01 01:55:13;;;;;;;10.02;1.15;;;;;;;19.19;71.60;99870.31;4973031;28;20030;-93
2021/10/01 01:57:49;;;;;;;6.90;1.02;;;;;;;19.31;71.48;99862.78;4971793;28;20031;-93
2021/10/01 02:00:15;;;;;;;7.57;1.20;;;;;;;18.88;73.10;99860.47;4971837;28;20027;-94
2021/10/01 02:02:41;;;;;;;4.78;1.02;;;;;;;19.01;72.79;99850.09;4972839;28;20118;-94
2021/10/01 02:05:07;;;;;;;6.95;1.75;;;;;;;19.39;71.21;99847.59;4971831;28;20065;-95
2021/10/01 02:07:33;;;;;;;6.30;1.13;;;;;;;19.64;70.70;99839.44;4972952;28;20477;-95
2021/10/01 02:09:58;;;;;;;10.57;1.60;;;;;;;19.24;72.04;99844.03;4971640;28;20030;-95
2021/10/01 02:12:27;;;;;;;4.90;0.93;;;;;;;19.55;70.99;99822.72;4971852;28;20412;-95
2021/10/01 02:14:55;;;;;;;9.60;1.38;;;;;;;19.58;71.07;99826.84;4973050;28;20023;-94
2021/10/01 02:17:21;;;;;;;8.50;1.25;;;;;;;19.27;71.94;99802.91;4972910;28;20034;-94
2021/10/01 02:19:47;;;;;;;5.85;0.57;;;;;;;19.51;71.80;99812.56;4971818;28;20552;-95
2021/10/01 02:22:16;;;;;;;6.05;1.00;;;;;;;19.51;71.53;99805.44;4972946;28;20031;-94
2021/10/01 02:24:43;;;;;;;7.03;0.90;;;;;;;19.15;72.21;99794.50;4971805;28;20023;-94
2021/10/01 02:27:25;;;;;;;4.88;0.93;;;;;;;19.39;72.17;99786.38;4972734;28;20071;-94
2021/10/01 02:30:03;;;;;;;7.47;1.10;;;;;;;19.33;72.17;99792.41;4971661;28;20031;-95
2021/10/01 02:32:40;;;;;;;4.07;1.10;;;;;;;19.48;71.90;99779.16;4971654;28;20065;-94
2021/10/01 02:35:07;;;;;;;5.22;0.60;;;;;;;19.38;71.86;99768.72;4971481;28;20027;-94
2021/10/01 02:37:33;;;;;;;3.80;0.80;;;;;;;19.39;71.96;99774.88;4976119;28;20038;-94
2021/10/01 02:40:02;;;;;;;7.38;0.85;;;;;;;19.28;71.91;99784.09;4976542;28;20031;-94
2021/10/01 02:42:29;;;;;;;3.67;0.60;;;;;;;19.35;72.08;99765.59;4976269;28;20039;-94
2021/10/01 02:44:55;;;;;;;7.05;0.85;;;;;;;19.07;73.10;99768.75;4975085;28;20034;-94
2021/10/01 02:47:29;;;;;;;10.32;1.00;;;;;;;19.19;72.07;99759.41;4976080;28;20070;-95
2021/10/01 02:49:55;;;;;;;2.88;0.60;;;;;;;19.45;71.58;99768.03;4975079;28;20058;-94
2021/10/01 02:52:42;;;;;;;7.20;1.15;;;;;;;18.99;73.85;99764.31;4974997;28;20030;-95
2021/10/01 02:55:14;;;;;;;6.03;0.98;;;;;;;19.09;72.65;99752.63;4976203;28;20049;-94
2021/10/01 02:57:44;;;;;;;6.70;1.08;;;;;;;18.99;72.97;99752.84;4974634;28;20104;-94
2021/10/01 03:00:11;;;;;;;5.47;1.35;;;;;;;19.23;72.44;99759.84;4974967;28;20023;-93
2021/10/01 03:02:39;;;;;;;6.22;0.80;;;;;;;18.80;73.49;99760.25;4975850;28;20023;-93
2021/10/01 03:05:05;;;;;;;8.18;1.02;;;;;;;19.18;71.90;99757.72;4975875;28;20065;-95
2021/10/01 03:07:34;;;;;;;4.47;1.30;;;;;;;19.16;71.57;99743.75;4974560;28;20023;-95
2021/10/01 03:10:04;;;;;;;8.23;1.05;;;;;;;19.10;71.64;99748.97;4976220;28;20501;-95
2021/10/01 03:12:31;;;;;;;9.35;1.27;;;;;;;19.06;72.19;99747.66;4974726;28;20126;-94
2021/10/01 03:14:56;;;;;;;8.07;0.93;;;;;;;19.21;71.07;99737.91;4974588;28;20026;-95
2021/10/01 03:17:23;;;;;;;3.58;0.63;;;;;;;18.88;71.98;99740.78;4974378;28;20045;-94
2021/10/01 03:19:50;;;;;;;5.47;1.13;;;;;;;19.10;71.59;99746.31;4974467;28;20471;-94
2021/10/01 03:22:17;;;;;;;6.05;1.45;;;;;;;19.07;72.09;99744.81;4974532;28;20593;-95
2021/10/01 03:24:43;;;;;;;8.77;1.58;;;;;;;19.18;71.27;99746.25;4974241;28;20027;-94
2021/10/01 03:27:09;;;;;;;5.22;1.60;;;;;;;18.75;72.94;99745.78;4974798;28;20719;-94
2021/10/01 03:29:36;;;;;;;10.07;1.30;;;;;;;19.21;71.14;99740.56;4974171;28;20102;-95
2021/10/01 03:32:03;;;;;;;6.53;1.33;;;;;;;19.03;71.50;99744.31;4974140;28;20027;-95
2021/10/01 03:34:29;;;;;;;11.40;1.77;;;;;;;19.07;71.70;99747.47;4974257;28;20022;-94
2021/10/01 03:36:54;;;;;;;7.38;1.13;;;;;;;19.18;70.60;99738.28;4973824;28;20031;-94
2021/10/01 03:39:21;;;;;;;8.05;1.33;;;;;;;19.06;70.68;99745.00;4974095;28;20429;-94
2021/10/01 03:41:47;;;;;;;10.90;1.88;;;;;;;19.00;71.00;99739.38;4975169;28;20470;-94
2021/10/01 03:44:12;;;;;;;9.60;1.27;;;;;;;18.97;71.55;99752.19;4974062;28;20029;-93
2021/10/01 03:46:38;;;;;;;7.80;1.20;;;;;;;18.71;71.58;99750.63;4975164;28;20110;-94
2021/10/01 03:49:03;;;;;;;11.32;1.38;;;;;;;19.11;70.54;99739.97;4973378;28;20038;-94
2021/10/01 03:51:30;;;;;;;10.98;1.38;;;;;;;19.10;69.65;99727.69;4973996;28;20474;-95
2021/10/01 03:53:56;;;;;;;12.90;1.55;;;;;;;18.93;70.15;99732.25;4974013;28;20382;-96
2021/10/01 03:56:21;;;;;;;10.45;1.67;;;;;;;18.62;71.21;99725.06;4973890;28;20023;-95
2021/10/01 03:58:48;;;;;;;7.85;1.60;;;;;;;19.12;69.27;99731.81;4973989;28;20062;-95
2021/10/01 04:01:14;;;;;;;10.88;2.95;;;;;;;19.03;69.57;99739.00;4975193;28;20034;-96
2021/10/01 04:03:40;;;;;;;17.55;1.67;;;;;;;19.01;69.05;99738.34;4973608;28;20030;-95
2021/10/01 04:06:05;;;;;;;10.02;1.67;;;;;;;18.67;70.09;99733.34;4974785;28;20026;-94
2021/10/01 04:08:31;;;;;;;5.65;1.17;;;;;;;18.93;69.41;99732.25;4974702;28;20023;-93
2021/10/01 04:10:57;;;;;;;12.05;2.08;;;;;;;19.03;68.42;99731.03;4973506;28;20038;-95
2021/10/01 04:13:22;;;;;;;10.40;1.80;;;;;;;18.85;68.59;99741.13;4974688;28;20490;-94
2021/10/01 04:15:48;;;;;;;10.15;1.55;;;;;;;19.09;68.19;99745.47;4973250;28;20031;-93
2021/10/01 04:18:14;;;;;;;12.77;1.48;;;;;;;19.01;68.30;99729.56;4974627;28;20038;-95
2021/10/01 04:20:43;;;;;;;12.82;1.65;;;;;;;19.02;68.47;99736.53;4973497;28;20023;-95
2021/10/01 04:23:09;;;;;;;15.18;2.33;;;;;;;18.53;68.85;99744.72;4974507;28;20397;-94
2021/10/01 04:25:34;;;;;;;7.32;1.70;;;;;;;18.96;67.72;99737.25;4974706;28;20491;-94
2021/10/01 04:28:00;;;;;;;13.10;2.03;;;;;;;18.71;68.70;99737.31;4973354;28;20027;-95
2021/10/01 04:30:26;;;;;;;9.07;1.52;;;;;;;19.01;67.33;99748.19;4973355;28;20030;-95
2021/10/01 04:33:02;;;;;;;14.20;2.05;;;;;;;19.09;66.96;99731.34;4974453;28;20165;-94
2021/10/01 04:35:28;;;;;;;11.68;1.83;;;;;;;18.80;66.77;99743.47;4973258;28;20026;-94
2021/10/01 04:37:53;;;;;;;14.90;2.05;;;;;;;19.18;66.90;99746.25;4972924;28;20038;-95
2021/10/01 04:40:19;;;;;;;13.52;2.20;;;;;;;19.21;66.73;99738.75;4973376;28;20213;-95
2021/10/01 04:42:44;;;;;;;7.07;1.60;;;;;;;19.18;66.61;99741.75;4974414;28;20478;-95
2021/10/01 04:45:10;;;;;;;11.13;2.00;;;;;;;19.02;67.28;99763.16;4974282;28;20477;-96
2021/10/01 04:47:37;;;;;;;10.43;1.83;;;;;;;18.37;69.38;99796.13;4974220;28;20478;-94
2021/10/01 04:50:04;;;;;;;12.85;2.38;;;;;;;18.55;69.05;99774.63;4972844;28;20560;-96
2021/10/01 04:52:29;;;;;;;14.80;2.40;;;;;;;18.26;70.47;99778.69;4974111;28;20058;-94
2021/10/01 04:54:55;;;;;;;12.00;2.08;;;;;;;18.39;70.30;99772.84;4972667;28;20030;-94
2021/10/01 04:57:20;;;;;;;9.95;1.45;;;;;;;18.43;70.38;99795.44;4972950;28;20022;-94
2021/10/01 04:59:45;;;;;;;11.82;1.70;;;;;;;18.52;69.75;99764.31;4973364;28;20109;-95
2021/10/01 05:02:11;;;;;;;7.95;1.35;;;;;;;18.45;69.62;99788.13;4974074;28;20085;-96
2021/10/01 05:04:36;;;;;;;9.68;1.08;;;;;;;18.42;70.12;99788.44;4974010;28;20031;-96
2021/10/01 05:07:02;;;;;;;9.70;1.23;;;;;;;18.12;71.19;99774.88;4974017;28;20098;-96
2021/10/01 05:09:27;;;;;;;6.18;0.82;;;;;;;18.11;70.95;99783.88;4972817;28;20113;-95
2021/10/01 05:11:53;;;;;;;8.63;1.65;;;;;;;17.73;71.08;99775.56;4973092;28;20030;-96
2021/10/01 05:14:18;;;;;;;8.82;1.30;;;;;;;17.96;71.54;99756.31;4974030;28;20524;-96
2021/10/01 05:16:45;;;;;;;4.72;0.73;;;;;;;17.91;71.42;99753.31;4973003;28;20027;-96
2021/10/01 05:19:10;;;;;;;5.13;0.75;;;;;;;18.16;70.74;99746.16;4968067;28;20026;-96
2021/10/01 05:21:35;;;;;;;9.57;1.95;;;;;;;18.25;70.55;99766.41;4971435;28;20302;-96
2021/10/01 05:24:02;;;;;;;2.45;0.70;;;;;;;18.15;70.96;99771.09;4972293;28;20038;-96
2021/10/01 05:26:27;;;;;;;9.73;0.88;;;;;;;18.16;70.81;99756.78;4972516;28;20019;-95
2021/10/01 05:28:55;;;;;;;4.47;1.05;;;;;;;18.10;71.22;99763.59;4981199;28;20030;-96
2021/10/01 05:31:20;;;;;;;6.75;0.77;;;;;;;18.09;71.35;99755.78;4976439;28;20027;-96
2021/10/01 05:33:46;;;;;;;7.78;1.00;;;;;;;17.61;72.37;99758.28;4972643;28;20433;-96
2021/10/01 05:36:11;;;;;;;4.43;0.73;;;;;;;17.76;72.02;99771.75;4973585;28;20060;-96
2021/10/01 05:38:37;;;;;;;7.22;1.30;;;;;;;17.86;70.86;99771.59;4974310;28;20027;-96
2021/10/01 05:41:02;;;;;;;6.35;0.75;;;;;;;18.04;71.22;99765.09;4975273;28;20481;-96
2021/10/01 05:43:27;;;;;;;3.88;0.50;;;;;;;18.03;71.22;99754.66;4979878;28;20037;-96
2021/10/01 05:45:55;;;;;;;4.28;0.70;;;;;;;18.04;70.63;99759.78;4977943;28;20027;-96
2021/10/01 05:48:24;;;;;;;3.60;0.65;;;;;;;18.00;70.27;99749.66;4982720;28;20480;-96
2021/10/01 05:53:38;;;;;;;6.13;1.00;;;;;;;17.58;71.28;99732.09;5070317;23;20424;-95
2021/10/01 05:56:07;;;;;;;2.60;0.55;;;;;;;17.82;70.64;99733.91;4958150;29;20030;-96
2021/10/01 05:58:36;;;;;;;1.80;0.30;;;;;;;17.69;70.18;99723.78;5010445;23;20039;-96
2021/10/01 06:01:02;;;;;;;1.75;0.30;;;;;;;17.53;70.42;99729.09;5202901;23;20106;-96
2021/10/01 06:03:28;;;;;;;5.13;0.85;;;;;;;17.68;70.73;99734.59;4990211;28;20034;-96
2021/10/01 06:08:28;;;;;;;0.73;0.20;;;;;;;17.67;70.33;99714.31;5088500;23;20238;-96
2021/10/01 06:18:46;;;;;;;1.08;0.10;;;;;;;17.35;70.91;99705.38;5384970;23;20680;-96
2021/10/01 06:21:11;;;;;;;1.40;0.25;;;;;;;17.54;71.08;99714.84;4993701;28;20035;-96
2021/10/01 06:23:37;;;;;;;2.40;0.30;;;;;;;17.54;70.34;99720.16;4994468;28;20058;-96
2021/10/01 06:26:05;;;;;;;1.20;0.22;;;;;;;17.10;71.79;99725.72;4984545;28;20082;-96
2021/10/01 06:28:31;;;;;;;2.28;0.30;;;;;;;17.39;70.96;99717.31;5039428;23;20051;-95
2021/10/01 06:30:58;;;;;;;2.55;0.47;;;;;;;17.13;71.36;99728.91;5722484;23;20698;-95
2021/10/01 06:33:26;;;;;;;0.82;0.20;;;;;;;17.33;71.43;99741.84;4998313;23;20026;-96
2021/10/01 06:35:51;;;;;;;3.75;0.30;;;;;;;17.36;71.15;99742.38;4978449;28;20117;-91
2021/10/01 06:38:17;;;;;;;1.75;0.30;;;;;;;17.41;71.04;99748.00;4979252;28;20125;-95
2021/10/01 06:40:42;;;;;;;2.08;0.47;;;;;;;17.52;71.03;99748.69;4977302;28;20069;-96
2021/10/01 06:43:10;;;;;;;3.08;0.30;;;;;;;17.44;71.34;99747.66;4977443;28;20039;-96
2021/10/01 06:45:36;;;;;;;2.78;0.38;;;;;;;17.33;71.36;99758.59;4976851;28;20121;-94
2021/10/01 08:19:56;;;;;;;4.57;0.45;;;;;;;19.78;62.68;99809.41;4975983;28;20132;-96
2021/10/01 08:22:21;;;;;;;5.03;0.60;;;;;;;19.50;62.59;99805.59;4974565;28;20486;-95
2021/10/01 08:24:47;;;;;;;3.33;0.52;;;;;;;19.64;63.00;99802.16;4975409;28;20030;-96
2021/10/01 08:27:12;;;;;;;7.88;0.70;;;;;;;19.02;63.57;99817.19;4977585;28;20023;-96
2021/10/01 08:29:38;;;;;;;6.47;0.75;;;;;;;19.14;64.23;99822.13;4986759;28;20027;-96
2021/10/01 08:32:04;;;;;;;2.83;0.60;;;;;;;18.32;65.28;99817.03;4981254;28;20081;-96
2021/10/01 08:34:33;;;;;;;4.38;0.70;;;;;;;18.45;64.93;99825.31;4977976;28;20085;-95
2021/10/01 08:36:59;;;;;;;5.30;0.80;;;;;;;18.67;65.24;99830.91;4974089;28;20030;-95
2021/10/01 08:39:25;;;;;;;4.90;0.77;;;;;;;18.71;65.08;99841.03;4974579;28;20333;-96
2021/10/01 08:41:51;;;;;;;6.28;0.90;;;;;;;18.22;67.02;99843.78;4974629;28;20030;-95
2021/10/01 08:44:18;;;;;;;7.13;0.82;;;;;;;18.19;68.01;99841.47;4973939;28;20027;-95
2021/10/01 08:46:46;;;;;;;6.18;0.77;;;;;;;17.82;68.71;99840.94;4973547;28;20042;-95
2021/10/01 08:49:12;;;;;;;5.22;0.80;;;;;;;18.01;68.45;99849.63;4973442;28;20019;-95
2021/10/01 08:51:38;;;;;;;5.18;0.73;;;;;;;18.03;69.25;99858.25;4973419;28;20018;-95
2021/10/01 08:54:05;;;;;;;3.45;0.95;;;;;;;18.03;70.14;99856.44;4973612;28;20393;-95
2021/10/01 08:56:30;;;;;;;3.05;0.90;;;;;;;17.73;70.61;99863.19;4973449;28;20022;-94
2021/10/01 08:58:56;;;;;;;3.80;0.75;;;;;;;17.84;70.71;99864.72;4973250;28;20037;-94
2021/10/01 09:01:22;;;;;;;2.45;0.70;;;;;;;17.74;70.82;99845.44;4974476;28;20470;-93
2021/10/01 09:03:48;;;;;;;5.65;0.88;;;;;;;17.80;70.63;99842.94;4973062;28;20055;-94
2021/10/01 09:06:15;;;;;;;7.53;0.90;;;;;;;18.11;70.34;99846.78;4973189;28;20019;-96
2021/10/01 09:08:53;;;;;;;3.30;0.60;;;;;;;18.47;69.75;99841.13;4972998;28;20030;-94
2021/10/01 09:11:26;;;;;;;6.18;0.43;;;;;;;18.61;69.40;99843.06;4972986;28;20027;-94
2021/10/01 09:13:51;;;;;;;2.95;0.60;;;;;;;18.65;68.71;99848.88;4973329;28;20038;-95
2021/10/01 09:16:17;;;;;;;4.32;0.90;;;;;;;18.61;69.72;99835.09;4973121;28;20023;-94
2021/10/01 09:18:42;;;;;;;4.50;0.77;;;;;;;18.67;69.20;99841.56;4973254;28;20031;-95
2021/10/01 09:21:18;;;;;;;4.55;1.05;;;;;;;18.61;68.86;99843.06;4973455;28;20054;-96
2021/10/01 09:24:04;;;;;;;5.18;0.90;;;;;;;18.45;68.71;99846.59;4973052;28;20026;-96
2021/10/01 09:26:32;;;;;;;3.30;0.32;;;;;;;18.11;69.86;99857.41;4972949;28;20049;-94
2021/10/01 09:29:05;;;;;;;3.90;0.57;;;;;;;18.54;68.96;99850.06;4973649;28;20054;-96
2021/10/01 09:31:43;;;;;;;4.60;0.80;;;;;;;18.58;69.01;99859.34;4972734;28;20113;-95
2021/10/01 09:34:10;;;;;;;16.20;1.55;;;;;;;18.19;69.70;99855.59;4973234;28;20031;-95
2021/10/01 09:36:36;;;;;;;15.13;1.95;;;;;;;18.22;70.05;99860.56;4973905;28;20066;-96
2021/10/01 09:39:02;;;;;;;19.77;3.33;;;;;;;17.76;70.76;99862.84;4977022;28;20081;-96
2021/10/01 09:41:31;;;;;;;5.60;1.25;;;;;;;17.43;71.68;99868.06;4974827;28;20041;-94
2021/10/01 09:44:02;;;;;;;2.95;0.85;;;;;;;17.35;71.86;99859.28;4977095;28;20046;-96
2021/10/01 09:46:46;;;;;;;5.20;0.85;;;;;;;17.87;71.07;99867.06;4972661;28;20030;-95
2021/10/01 09:49:16;;;;;;;4.90;0.82;;;;;;;17.96;70.54;99865.22;4973061;28;20050;-96
2021/10/01 09:51:54;;;;;;;7.35;1.77;;;;;;;18.10;70.58;99875.19;4972971;28;20019;-96
2021/10/01 09:54:21;;;;;;;9.55;1.15;;;;;;;17.94;71.22;99854.75;4975593;28;20027;-96
2021/10/01 09:56:47;;;;;;;7.60;1.73;;;;;;;18.03;70.85;99861.75;4976249;28;20110;-96
2021/10/01 09:59:13;;;;;;;4.55;0.93;;;;;;;18.07;70.12;99864.91;4976018;28;20054;-95
2021/10/01 10:02:02;;;;;;;6.95;0.90;;;;;;;18.33;71.00;99864.72;4976471;28;20029;-95
2021/10/01 10:04:30;;;;;;;4.30;1.10;;;;;;;18.43;70.20;99864.53;4973088;28;20493;-96
2021/10/01 10:06:56;;;;;;;5.22;1.05;;;;;;;18.67;69.68;99865.50;4978059;28;20031;-96
2021/10/01 10:09:43;;;;;;;5.95;0.80;;;;;;;18.65;69.10;99856.84;4978448;28;20030;-96
2021/10/01 10:12:12;;;;;;;4.47;0.90;;;;;;;18.52;68.80;99868.84;4978829;28;20030;-95
2021/10/01 10:14:44;;;;;;;9.15;1.10;;;;;;;18.28;69.14;99861.72;4978738;28;20030;-96
2021/10/01 10:17:29;;;;;;;7.53;1.23;;;;;;;18.36;69.50;99860.88;4977999;28;20027;-96
2021/10/01 10:19:58;;;;;;;5.47;1.15;;;;;;;18.42;69.42;99873.50;4973950;28;20058;-96
2021/10/01 10:22:25;;;;;;;7.40;1.40;;;;;;;18.30;69.12;99870.34;4973630;28;20023;-96
2021/10/01 10:24:51;;;;;;;14.63;2.05;;;;;;;18.32;69.63;99884.28;4973120;28;20089;-95
2021/10/01 10:27:18;;;;;;;9.13;1.63;;;;;;;18.08;69.94;99898.44;4972827;28;20110;-96
2021/10/01 10:29:45;;;;;;;12.13;1.85;;;;;;;17.95;69.40;99914.00;4973575;28;20401;-95
2021/10/01 10:32:12;;;;;;;13.13;2.03;;;;;;;17.69;70.59;99914.09;4973923;28;20027;-96
2021/10/01 10:35:08;;;;;;;11.90;2.50;;;;;;;17.94;70.21;99912.38;4972751;28;20030;-96
2021/10/01 10:37:40;;;;;;;15.65;2.35;;;;;;;17.97;69.12;99917.34;4951636;28;20034;-96
2021/10/01 10:40:08;;;;;;;8.60;1.27;;;;;;;17.95;69.94;99919.31;4973675;28;20050;-96
2021/10/01 10:42:44;;;;;;;7.20;1.20;;;;;;;18.14;69.46;99926.97;4972944;28;20500;-96
2021/10/01 10:45:14;;;;;;;12.43;2.47;;;;;;;18.20;69.77;99913.03;4979024;28;20026;-96
2021/10/01 10:47:56;;;;;;;11.43;1.70;;;;;;;18.31;68.87;99914.53;4976892;28;20022;-96
2021/10/01 10:50:22;;;;;;;5.30;1.08;;;;;;;18.23;70.76;99907.41;4977391;28;20026;-96
2021/10/01 10:53:10;;;;;;;13.25;1.40;;;;;;;18.90;67.49;99905.50;4982424;28;20066;-96
2021/10/01 10:55:43;;;;;;;8.02;1.45;;;;;;;19.19;67.45;99926.19;4984148;28;20058;-96
2021/10/01 10:58:23;;;;;;;7.60;1.17;;;;;;;19.45;66.87;99919.78;4989792;28;20050;-96
2021/10/01 11:01:23;;;;;;;12.48;1.73;;;;;;;19.79;67.51;99920.28;4993525;28;20027;-96
2021/10/01 11:04:09;;;;;;;6.22;1.05;;;;;;;20.11;66.58;99922.91;4971278;29;20118;-96
2021/10/01 11:06:38;;;;;;;8.23;0.93;;;;;;;20.41;63.16;99919.31;4971974;29;20035;-96
2021/10/01 11:09:13;;;;;;;8.02;1.85;;;;;;;20.75;61.84;99925.22;4978952;28;20023;-96
2021/10/01 11:11:41;;;;;;;6.93;1.35;;;;;;;21.05;62.70;99920.72;4999613;28;20054;-96
2021/10/01 11:14:19;;;;;;;6.45;1.48;;;;;;;21.75;58.21;99935.38;4997869;28;20117;-96
2021/10/01 11:16:54;;;;;;;8.93;1.00;;;;;;;21.24;60.48;99930.00;4996760;28;20031;-96
2021/10/01 11:19:36;;;;;;;5.60;1.13;;;;;;;21.16;59.57;99927.44;4999441;28;20050;-96
2021/10/01 11:22:26;;;;;;;4.47;0.82;;;;;;;20.87;57.10;99934.41;4996626;28;20018;-96
2021/10/01 11:27:21;;;;;;;12.38;1.63;;;;;;;21.43;56.63;99922.44;5159037;23;20059;-96
2021/10/01 11:29:47;;;;;;;12.48;1.80;;;;;;;22.54;54.84;99928.34;4990777;28;20109;-96
2021/10/01 11:32:22;;;;;;;8.40;1.55;;;;;;;23.19;54.73;99929.00;4986966;28;20029;-96
2021/10/01 11:34:53;;;;;;;7.38;1.27;;;;;;;22.82;55.17;99931.00;4977231;28;20027;-96
2021/10/01 11:37:28;;;;;;;8.02;1.70;;;;;;;22.72;53.73;99933.19;4960442;28;20027;-95
2021/10/01 11:40:06;;;;;;;7.68;1.85;;;;;;;22.51;52.18;99926.88;4968899;28;20030;-96
2021/10/01 11:42:40;;;;;;;9.68;1.55;;;;;;;21.54;52.00;99936.19;4976547;28;20030;-95
2021/10/01 11:45:16;;;;;;;8.68;1.33;;;;;;;21.88;53.43;99942.72;4976109;28;20031;-96
2021/10/01 11:47:55;;;;;;;6.82;1.15;;;;;;;21.70;52.70;99936.97;4977559;28;20061;-96
2021/10/01 11:50:34;;;;;;;8.32;1.42;;;;;;;21.38;52.29;99933.66;4979349;28;20007;-96
2021/10/01 11:53:00;;;;;;;6.25;1.40;;;;;;;21.33;53.22;99950.25;4978344;28;20031;-96
2021/10/01 11:55:32;;;;;;;9.65;1.52;;;;;;;20.83;53.15;99938.47;4976942;28;20062;-95
2021/10/01 11:57:57;;;;;;;7.43;1.45;;;;;;;21.13;51.24;99942.00;4991826;28;20099;-96
2021/10/01 12:00:23;;;;;;;4.55;1.15;;;;;;;21.30;50.56;99949.78;4980822;28;20084;-96
2021/10/01 12:02:51;;;;;;;4.60;0.90;;;;;;;21.91;50.40;99957.56;4974801;28;20050;-96
2021/10/01 12:05:23;;;;;;;6.43;1.10;;;;;;;22.91;48.27;99953.94;4974050;28;20501;-96
2021/10/01 12:07:50;;;;;;;9.63;1.40;;;;;;;23.16;46.86;99956.16;4975324;28;20037;-95
2021/10/01 12:10:16;;;;;;;5.75;0.80;;;;;;;22.93;45.79;99967.94;4973820;28;20023;-95
2021/10/01 12:13:10;;;;;;;7.50;1.63;;;;;;;23.69;46.83;99953.72;4974187;28;20037;-94
2021/10/01 12:16:01;;;;;;;5.25;0.80;;;;;;;23.88;45.85;99954.03;4974031;28;20083;-96
2021/10/01 12:18:53;;;;;;;3.95;0.77;;;;;;;23.73;43.72;99952.28;4973804;28;20387;-95
2021/10/01 12:21:20;;;;;;;4.63;0.73;;;;;;;23.40;45.64;99965.56;4973768;28;20030;-95
2021/10/01 12:23:54;;;;;;;5.07;1.45;;;;;;;23.90;42.82;99955.47;4973548;28;20455;-94
2021/10/01 12:26:34;;;;;;;2.75;0.60;;;;;;;23.70;44.04;99968.78;4973368;28;20030;-95
2021/10/01 12:28:59;;;;;;;2.90;0.52;;;;;;;23.79;44.29;99960.59;4973266;28;20069;-94
2021/10/01 12:31:29;;;;;;;6.47;0.95;;;;;;;23.95;42.01;99954.84;4973128;28;20058;-95
2021/10/01 12:33:59;;;;;;;3.17;0.68;;;;;;;23.95;41.22;99965.56;4974454;28;20415;-93
2021/10/01 12:36:25;;;;;;;5.20;0.95;;;;;;;24.28;42.36;99962.13;4974305;28;20030;-94
2021/10/01 12:38:59;;;;;;;2.80;0.65;;;;;;;24.82;42.48;99961.16;4972982;28;20507;-94
2021/10/01 12:41:26;;;;;;;4.50;1.02;;;;;;;25.10;41.57;99973.50;4973948;28;20038;-93
2021/10/01 12:43:58;;;;;;;2.00;0.70;;;;;;;24.70;41.57;99969.00;4972634;28;20126;-94
2021/10/01 12:46:42;;;;;;;;;;;;;;;25.04;40.39;99968.94;4974279;28;20023;-94
2021/10/01 12:49:27;;;;;;;2.58;0.75;;;;;;;24.76;41.18;99969.19;4973952;28;19914;-94
2021/10/01 12:52:00;;;;;;;5.00;0.95;;;;;;;24.23;39.46;99983.38;4973995;28;20034;-93
2021/10/01 12:54:29;;;;;;;5.93;0.70;;;;;;;23.49;42.96;99987.66;4973697;28;20477;-93
2021/10/01 12:57:16;;;;;;;3.10;0.82;;;;;;;23.78;42.32;99975.03;4972575;28;20122;-93
2021/10/01 12:59:59;;;;;;;4.28;0.80;;;;;;;23.11;43.14;99980.03;4973662;28;20031;-93
2021/10/01 13:02:37;;;;;;;2.92;0.75;;;;;;;23.96;41.51;99980.66;4972324;28;20078;-93
2021/10/01 13:05:08;;;;;;;2.75;0.90;;;;;;;23.81;39.80;99982.66;4972404;28;20495;-93
2021/10/01 13:07:43;;;;;;;2.80;0.73;;;;;;;23.16;40.84;99989.13;4973516;28;20173;-94
2021/10/01 13:10:30;;;;;;;7.75;1.15;;;;;;;22.89;42.29;100004.16;4973563;28;20489;-93
2021/10/01 13:13:11;;;;;;;6.95;1.17;;;;;;;22.05;44.14;99995.94;4973504;28;20109;-93
2021/10/01 13:15:42;;;;;;;11.45;1.75;;;;;;;22.52;43.28;99990.06;4973572;28;20023;-92
2021/10/01 13:18:09;;;;;;;7.85;1.35;;;;;;;22.58;43.18;99994.63;4973445;28;20031;-93
2021/10/01 13:20:47;;;;;;;8.13;1.38;;;;;;;22.61;42.86;99984.56;4971369;28;20076;-92
2021/10/01 13:23:35;;;;;;;4.95;0.95;;;;;;;22.00;42.64;99999.19;4973364;28;20038;-92
2021/10/01 13:26:18;;;;;;;8.98;1.17;;;;;;;21.41;45.49;99988.56;4972854;28;20047;-93
2021/10/01 13:28:47;;;;;;;9.45;2.25;;;;;;;21.44;42.26;99994.38;4973366;28;20381;-92
2021/10/01 13:31:17;;;;;;;5.90;1.30;;;;;;;21.38;44.07;100005.78;4973152;28;20058;-92